createdAt,value
2023-05-01T00:03:39.157Z,21.79
2023-05-01T00:08:40.688Z,21.79
2023-05-01T00:13:42.064Z,21.79
2023-05-01T00:18:43.648Z,21.78
2023-05-01T00:23:45.113Z,21.79
2023-05-01T00:28:46.499Z,21.80
2023-05-01T00:33:47.870Z,21.80
2023-05-01T00:38:49.325Z,21.76
2023-05-01T00:43:51.931Z,21.79
2023-05-01T00:48:53.551Z,21.79
2023-05-01T00:53:55.939Z,21.78
2023-05-01T00:58:57.457Z,21.82
2023-05-01T01:03:58.845Z,21.82
2023-05-01T01:09:11.340Z,21.79
2023-05-01T01:14:16.909Z,21.80
2023-05-01T01:19:57.319Z,21.80
2023-05-01T01:24:59.028Z,21.80
2023-05-01T01:30:33.719Z,21.79
2023-05-01T01:35:35.086Z,21.81
2023-05-01T01:40:55.133Z,21.80
2023-05-01T01:46:00.784Z,21.77
2023-05-01T01:51:04.818Z,21.81
2023-05-01T01:56:07.004Z,21.80
2023-05-01T02:01:08.440Z,21.79
2023-05-01T02:06:09.834Z,21.80
2023-05-01T02:11:11.265Z,21.82
2023-05-01T02:16:13.188Z,21.78
2023-05-01T02:21:14.695Z,21.79
2023-05-01T02:26:17.024Z,21.80
2023-05-01T02:31:18.452Z,21.80
2023-05-01T02:36:20.372Z,21.80
2023-05-01T02:41:22.466Z,21.82
2023-05-01T02:46:24.409Z,21.78
2023-05-01T02:51:26.135Z,21.78
2023-05-01T02:56:27.903Z,21.80
2023-05-01T03:01:29.756Z,21.81
2023-05-01T03:06:31.446Z,21.79
2023-05-01T03:11:32.891Z,21.78
2023-05-01T03:16:34.312Z,21.79
2023-05-01T03:21:36.930Z,21.82
2023-05-01T03:26:38.360Z,21.79
2023-05-01T03:31:39.844Z,21.81
2023-05-01T03:36:41.408Z,21.80
2023-05-01T03:41:43.078Z,21.77
2023-05-01T03:46:44.528Z,21.77
2023-05-01T03:51:46.262Z,21.80
2023-05-01T03:56:47.642Z,21.79
2023-05-01T04:01:49.550Z,21.77
2023-05-01T04:06:51.099Z,21.79
2023-05-01T04:11:52.586Z,21.82
2023-05-01T04:16:54.014Z,21.82
2023-05-01T04:21:55.405Z,21.79
2023-05-01T04:26:56.770Z,21.81
2023-05-01T04:31:58.236Z,21.84
2023-05-01T04:36:59.771Z,21.82
2023-05-01T04:42:02.064Z,21.79
2023-05-01T04:47:04.848Z,21.80
2023-05-01T04:52:06.379Z,21.83
2023-05-01T04:57:08.043Z,21.79
2023-05-01T05:02:09.692Z,21.80
2023-05-01T05:07:11.229Z,21.82
2023-05-01T05:12:14.511Z,21.81
2023-05-01T05:17:15.906Z,21.80
2023-05-01T05:22:17.285Z,21.80
2023-05-01T05:27:18.656Z,21.78
2023-05-01T05:32:20.248Z,21.82
2023-05-01T05:37:21.750Z,21.83
2023-05-01T05:42:23.397Z,21.82
2023-05-01T05:47:24.836Z,21.82
2023-05-01T05:52:26.288Z,21.85
2023-05-01T05:57:27.678Z,21.83
2023-05-01T06:02:29.222Z,21.84
2023-05-01T06:07:30.898Z,21.85
2023-05-01T06:12:32.379Z,21.84
2023-05-01T06:17:35.947Z,21.83
2023-05-01T06:22:37.372Z,21.84
2023-05-01T06:27:38.749Z,21.85
2023-05-01T06:32:41.977Z,21.82
2023-05-01T06:37:43.402Z,21.86
2023-05-01T06:42:44.805Z,21.87
2023-05-01T06:47:46.210Z,21.86
2023-05-01T06:52:47.764Z,21.87
2023-05-01T06:57:49.137Z,21.85
2023-05-01T07:02:50.702Z,21.87
2023-05-01T07:08:00.841Z,21.92
2023-05-01T07:13:03.436Z,21.92
2023-05-01T07:18:07.781Z,21.88
2023-05-01T07:23:12.359Z,21.89
2023-05-01T07:28:13.779Z,21.89
2023-05-01T07:33:15.250Z,21.87
2023-05-01T07:38:16.751Z,21.88
2023-05-01T07:43:18.375Z,21.91
2023-05-01T07:48:19.775Z,21.90
2023-05-01T07:53:22.661Z,21.91
2023-05-01T07:58:24.050Z,21.90
2023-05-01T08:03:27.601Z,21.91
2023-05-01T08:08:29.226Z,21.91
2023-05-01T08:13:30.860Z,21.89
2023-05-01T08:18:32.333Z,21.88
2023-05-01T08:23:33.726Z,21.88
2023-05-01T08:28:35.411Z,21.90
2023-05-01T08:33:36.802Z,21.87
2023-05-01T08:38:38.171Z,21.88
2023-05-01T08:43:40.718Z,21.88
2023-05-01T08:48:42.530Z,21.89
2023-05-01T08:53:43.906Z,21.88
2023-05-01T08:58:45.830Z,21.88
2023-05-01T09:03:47.561Z,21.91
2023-05-01T09:08:48.974Z,21.92
2023-05-01T09:13:51.054Z,21.90
2023-05-01T09:18:52.963Z,21.91
2023-05-01T09:23:54.336Z,21.88
2023-05-01T09:28:59.487Z,21.90
2023-05-01T09:34:04.835Z,21.91
2023-05-01T09:39:06.412Z,21.93
2023-05-01T09:44:17.596Z,21.92
2023-05-01T09:49:18.972Z,21.92
2023-05-01T09:54:20.722Z,21.91
2023-05-01T09:59:22.161Z,21.92
2023-05-01T10:04:31.127Z,21.93
2023-05-01T10:09:32.515Z,21.93
2023-05-01T10:14:38.512Z,21.93
2023-05-01T10:19:39.933Z,21.90
2023-05-01T10:24:46.103Z,21.94
2023-05-01T10:29:48.903Z,21.93
2023-05-01T10:34:58.784Z,21.94
2023-05-01T10:40:00.399Z,21.93
2023-05-01T10:45:27.569Z,21.93
2023-05-01T10:50:29.170Z,21.93
2023-05-01T10:55:33.862Z,21.94
2023-05-01T11:00:35.312Z,21.94
2023-05-01T11:06:04.742Z,21.96
2023-05-01T11:11:21.385Z,21.93
2023-05-01T11:16:37.949Z,21.93
2023-05-01T11:21:40.506Z,21.95
2023-05-01T11:26:42.204Z,21.95
2023-05-01T11:31:43.604Z,21.95
2023-05-01T11:36:51.855Z,21.96
2023-05-01T11:42:09.292Z,21.98
2023-05-01T11:47:10.803Z,21.96
2023-05-01T11:52:12.295Z,21.93
2023-05-01T11:57:13.955Z,21.96
2023-05-01T12:02:19.895Z,21.97
2023-05-01T12:07:24.499Z,21.96
2023-05-01T12:12:26.265Z,21.97
2023-05-01T12:17:29.938Z,21.97
2023-05-01T12:22:31.579Z,21.96
2023-05-01T12:27:33.413Z,21.95
2023-05-01T12:32:34.930Z,21.94
2023-05-01T12:37:36.483Z,21.94
2023-05-01T12:42:37.866Z,21.95
2023-05-01T12:47:39.299Z,21.95
2023-05-01T12:52:40.725Z,21.94
2023-05-01T12:57:54.640Z,21.96
2023-05-01T13:02:56.144Z,21.95
2023-05-01T13:07:58.882Z,21.94
2023-05-01T13:13:00.257Z,21.93
2023-05-01T13:18:05.283Z,21.94
2023-05-01T13:23:10.882Z,21.94
2023-05-01T13:28:17.732Z,21.97
2023-05-01T13:33:19.100Z,21.95
2023-05-01T13:38:23.300Z,21.93
2023-05-01T13:43:24.681Z,21.96
2023-05-01T13:48:26.052Z,21.94
2023-05-01T13:53:30.406Z,21.95
2023-05-01T13:58:32.536Z,21.95
2023-05-01T14:03:40.291Z,21.94
2023-05-01T14:08:42.989Z,21.95
2023-05-01T14:13:45.338Z,21.94
2023-05-01T14:18:47.397Z,21.95
2023-05-01T14:23:48.839Z,21.95
2023-05-01T14:28:50.213Z,21.94
2023-05-01T14:33:57.352Z,21.97
2023-05-01T14:38:59.612Z,21.96
2023-05-01T14:44:00.982Z,21.93
2023-05-01T14:49:02.500Z,21.97
2023-05-01T14:54:03.912Z,21.97
2023-05-01T14:59:05.300Z,21.95
2023-05-01T15:04:07.578Z,21.98
2023-05-01T15:09:09.706Z,21.92
2023-05-01T15:14:11.086Z,21.88
2023-05-01T15:19:12.498Z,21.88
2023-05-01T15:24:13.930Z,21.90
2023-05-01T15:29:15.392Z,21.84
2023-05-01T15:34:17.144Z,21.83
2023-05-01T15:39:20.020Z,21.79
2023-05-01T15:44:21.432Z,21.77
2023-05-01T15:49:22.861Z,21.78
2023-05-01T15:54:24.553Z,21.77
2023-05-01T15:59:26.888Z,21.73
2023-05-01T16:04:28.272Z,21.73
2023-05-01T16:09:31.220Z,21.73
2023-05-01T16:14:34.071Z,21.73
2023-05-01T16:19:38.188Z,21.69
2023-05-01T16:24:40.013Z,21.71
2023-05-01T16:29:41.447Z,21.71
2023-05-01T16:34:42.955Z,21.66
2023-05-01T16:39:44.357Z,21.68
2023-05-01T16:44:45.813Z,21.70
2023-05-01T16:49:47.188Z,21.64
2023-05-01T16:54:48.556Z,21.63
2023-05-01T16:59:50.064Z,21.63
2023-05-01T17:04:51.649Z,21.63
2023-05-01T17:09:53.211Z,21.65
2023-05-01T17:14:54.894Z,21.62
2023-05-01T17:19:56.406Z,21.57
2023-05-01T17:25:01.977Z,21.59
2023-05-01T17:30:04.469Z,21.60
2023-05-01T17:35:06.113Z,21.59
2023-05-01T17:40:08.854Z,21.56
2023-05-01T17:45:10.902Z,21.54
2023-05-01T17:50:13.276Z,21.53
2023-05-01T17:55:17.128Z,21.57
2023-05-01T18:00:19.693Z,21.54
2023-05-01T18:05:21.523Z,21.55
2023-05-01T18:10:22.956Z,21.54
2023-05-01T18:15:24.437Z,21.52
2023-05-01T18:20:25.909Z,21.52
2023-05-01T18:25:28.094Z,21.52
2023-05-01T18:30:29.487Z,21.52
2023-05-01T18:35:30.856Z,21.50
2023-05-01T18:40:32.323Z,21.49
2023-05-01T18:45:33.701Z,21.48
2023-05-01T18:50:37.904Z,21.50
2023-05-01T18:55:39.280Z,21.48
2023-05-01T19:00:40.725Z,21.47
2023-05-01T19:05:44.773Z,21.47
2023-05-01T19:10:46.389Z,21.46
2023-05-01T19:15:47.817Z,21.47
2023-05-01T19:20:49.214Z,21.45
2023-05-01T19:25:50.743Z,21.44
2023-05-01T19:30:52.111Z,21.44
2023-05-01T19:35:53.478Z,21.45
2023-05-01T19:40:54.883Z,21.44
2023-05-01T19:45:56.544Z,21.43
2023-05-01T19:50:57.975Z,21.42
2023-05-01T19:55:59.443Z,21.43
2023-05-01T20:01:03.363Z,21.42
2023-05-01T20:06:06.198Z,21.44
2023-05-01T20:11:07.847Z,21.40
2023-05-01T20:16:09.827Z,21.40
2023-05-01T20:21:11.403Z,21.42
2023-05-01T20:26:12.935Z,21.43
2023-05-01T20:31:14.350Z,21.41
2023-05-01T20:36:17.196Z,21.40
2023-05-01T20:41:18.652Z,21.43
2023-05-01T20:46:20.261Z,21.44
2023-05-01T20:51:21.922Z,21.46
2023-05-01T20:56:23.704Z,21.43
2023-05-01T21:01:25.172Z,21.44
2023-05-01T21:06:27.127Z,21.50
2023-05-01T21:11:28.631Z,21.48
2023-05-01T21:16:30.116Z,21.48
2023-05-01T21:21:32.843Z,21.48
2023-05-01T21:26:34.268Z,21.48
2023-05-01T21:31:36.565Z,21.51
2023-05-01T21:36:47.414Z,21.47
2023-05-01T21:41:49.318Z,21.49
2023-05-01T21:46:53.932Z,21.46
2023-05-01T21:51:59.180Z,21.45
2023-05-01T21:57:00.721Z,21.47
2023-05-01T22:02:08.273Z,21.43
2023-05-01T22:07:09.638Z,21.42
2023-05-01T22:12:11.109Z,21.42
2023-05-01T22:17:12.480Z,21.42
2023-05-01T22:22:14.017Z,21.41
2023-05-01T22:27:18.296Z,21.39
2023-05-01T22:32:19.710Z,21.41
2023-05-01T22:37:21.642Z,21.40
2023-05-01T22:42:23.240Z,21.36
2023-05-01T22:47:24.687Z,21.38
2023-05-01T22:52:26.094Z,21.38
2023-05-01T22:57:27.471Z,21.38
2023-05-01T23:02:28.935Z,21.36
2023-05-01T23:07:30.631Z,21.37
2023-05-01T23:12:32.624Z,21.37
2023-05-01T23:17:34.358Z,21.35
2023-05-01T23:22:37.952Z,21.34
2023-05-01T23:27:40.804Z,21.34
2023-05-01T23:32:42.298Z,21.35
2023-05-01T23:37:43.803Z,21.34
2023-05-01T23:42:45.254Z,21.35
2023-05-01T23:47:46.654Z,21.35
2023-05-01T23:52:48.079Z,21.33
2023-05-01T23:57:49.474Z,21.33
